sensor_id;sensor_type;location;lat;lon;timestamp;pressure;altitude;pressure_sealevel;temperature;humidity
9281;BME280;4679;47.966;7.958;2023-04-08T05:22:01;97469.00;;;6.20;84.11
9281;BME280;4679;47.966;7.958;2023-04-08T05:24:03;97473.28;;;6.21;84.70
9281;BME280;4679;47.966;7.958;2023-04-08T05:26:06;97467.59;;;6.24;84.10
9281;BME280;4679;47.966;7.958;2023-04-08T05:28:08;97474.03;;;6.28;84.59
9281;BME280;4679;47.966;7.958;2023-04-08T05:30:10;97472.81;;;6.31;83.99
9281;BME280;4679;47.966;7.958;2023-04-08T05:32:12;97468.38;;;6.31;84.14
9281;BME280;4679;47.966;7.958;2023-04-08T05:34:18;97464.31;;;6.29;85.18
9281;BME280;4679;47.966;7.958;2023-04-08T05:36:22;97466.53;;;6.32;83.99
9281;BME280;4679;47.966;7.958;2023-04-08T05:38:25;97470.81;;;6.33;85.18
9281;BME280;4679;47.966;7.958;2023-04-08T05:40:26;97472.44;;;6.27;84.47
9281;BME280;4679;47.966;7.958;2023-04-08T05:42:28;97483.59;;;6.23;84.75
9281;BME280;4679;47.966;7.958;2023-04-08T05:44:31;97488.66;;;6.24;84.09
9281;BME280;4679;47.966;7.958;2023-04-08T05:46:33;97481.34;;;6.33;84.94
9281;BME280;4679;47.966;7.958;2023-04-08T05:48:35;97482.34;;;6.39;83.97
9281;BME280;4679;47.966;7.958;2023-04-08T05:50:36;97478.28;;;6.36;84.41
9281;BME280;4679;47.966;7.958;2023-04-08T05:52:41;97486.59;;;6.33;84.19
9281;BME280;4679;47.966;7.958;2023-04-08T05:54:45;97490.88;;;6.34;85.17
9281;BME280;4679;47.966;7.958;2023-04-08T05:56:46;97483.38;;;6.38;85.21
9281;BME280;4679;47.966;7.958;2023-04-08T05:58:48;97484.97;;;6.39;83.93
9281;BME280;4679;47.966;7.958;2023-04-08T06:00:49;97495.31;;;6.40;85.22
9281;BME280;4679;47.966;7.958;2023-04-08T06:02:51;97495.09;;;6.42;84.70
9281;BME280;4679;47.966;7.958;2023-04-08T06:04:53;97493.25;;;6.49;84.62
9281;BME280;4679;47.966;7.958;2023-04-08T06:06:55;97501.97;;;6.56;84.61
9281;BME280;4679;47.966;7.958;2023-04-08T06:08:58;97499.09;;;6.57;85.19
9281;BME280;4679;47.966;7.958;2023-04-08T06:11:02;97503.94;;;6.60;84.83
9281;BME280;4679;47.966;7.958;2023-04-08T06:13:04;97505.56;;;6.61;84.75
9281;BME280;4679;47.966;7.958;2023-04-08T06:15:07;97506.78;;;6.65;84.34
9281;BME280;4679;47.966;7.958;2023-04-08T06:17:08;97504.53;;;6.69;83.78
9281;BME280;4679;47.966;7.958;2023-04-08T06:19:10;97509.78;;;6.76;84.92
9281;BME280;4679;47.966;7.958;2023-04-08T06:21:12;97509.56;;;6.77;83.93
9281;BME280;4679;47.966;7.958;2023-04-08T06:23:13;97507.13;;;6.76;84.65
9281;BME280;4679;47.966;7.958;2023-04-08T06:25:15;97507.75;;;6.78;84.63
9281;BME280;4679;47.966;7.958;2023-04-08T06:27:18;97507.31;;;6.87;83.91
9281;BME280;4679;47.966;7.958;2023-04-08T06:29:20;97508.66;;;6.96;83.81
9281;BME280;4679;47.966;7.958;2023-04-08T06:31:22;97506.78;;;7.03;83.46
9281;BME280;4679;47.966;7.958;2023-04-08T06:33:24;97507.78;;;7.09;84.00
9281;BME280;4679;47.966;7.958;2023-04-08T06:35:25;97503.72;;;7.13;83.87
9281;BME280;4679;47.966;7.958;2023-04-08T06:37:27;97507.31;;;7.19;83.31
9281;BME280;4679;47.966;7.958;2023-04-08T06:39:28;97508.94;;;7.20;83.48
9281;BME280;4679;47.966;7.958;2023-04-08T06:41:30;97509.75;;;7.20;83.78
9281;BME280;4679;47.966;7.958;2023-04-08T06:43:34;97512.59;;;7.19;84.08
9281;BME280;4679;47.966;7.958;2023-04-08T06:45:36;97519.75;;;7.12;83.66
9281;BME280;4679;47.966;7.958;2023-04-08T06:47:38;97516.31;;;7.11;84.47
9281;BME280;4679;47.966;7.958;2023-04-08T06:49:40;97523.22;;;7.05;83.79
9281;BME280;4679;47.966;7.958;2023-04-08T06:51:41;97523.81;;;7.07;83.44
9281;BME280;4679;47.966;7.958;2023-04-08T06:53:43;97522.41;;;7.05;83.46
9281;BME280;4679;47.966;7.958;2023-04-08T06:55:45;97521.41;;;7.06;84.24
9281;BME280;4679;47.966;7.958;2023-04-08T06:57:46;97520.16;;;7.09;84.16
9281;BME280;4679;47.966;7.958;2023-04-08T06:59:49;97524.19;;;7.18;83.05
9281;BME280;4679;47.966;7.958;2023-04-08T07:01:52;97519.06;;;7.23;83.86
9281;BME280;4679;47.966;7.958;2023-04-08T07:03:54;97528.94;;;7.34;83.14
9281;BME280;4679;47.966;7.958;2023-04-08T07:05:56;97532.53;;;7.46;83.07
9281;BME280;4679;47.966;7.958;2023-04-08T07:07:57;97528.91;;;7.40;82.89
9281;BME280;4679;47.966;7.958;2023-04-08T07:09:59;97541.31;;;7.40;83.15
9281;BME280;4679;47.966;7.958;2023-04-08T07:12:01;97534.31;;;7.52;82.47
9281;BME280;4679;47.966;7.958;2023-04-08T07:14:03;97546.41;;;7.66;82.77
9281;BME280;4679;47.966;7.958;2023-04-08T07:16:06;97540.88;;;7.74;82.56
9281;BME280;4679;47.966;7.958;2023-04-08T07:18:08;97537.41;;;7.74;82.14
9281;BME280;4679;47.966;7.958;2023-04-08T07:20:10;97537.22;;;7.75;82.64
9281;BME280;4679;47.966;7.958;2023-04-08T07:22:12;97541.63;;;7.82;82.18
9281;BME280;4679;47.966;7.958;2023-04-08T07:24:15;97538.53;;;7.85;82.51
9281;BME280;4679;47.966;7.958;2023-04-08T07:26:17;97544.66;;;7.85;82.91
9281;BME280;4679;47.966;7.958;2023-04-08T07:28:19;97544.38;;;7.93;82.86
9281;BME280;4679;47.966;7.958;2023-04-08T07:30:21;97546.25;;;7.86;82.13
9281;BME280;4679;47.966;7.958;2023-04-08T07:32:24;97549.31;;;7.83;81.88
9281;BME280;4679;47.966;7.958;2023-04-08T07:34:25;97548.25;;;7.91;82.59
9281;BME280;4679;47.966;7.958;2023-04-08T07:36:27;97544.97;;;7.95;82.26
9281;BME280;4679;47.966;7.958;2023-04-08T07:38:29;97551.22;;;8.01;82.02
9281;BME280;4679;47.966;7.958;2023-04-08T07:40:30;97540.59;;;8.07;82.14
9281;BME280;4679;47.966;7.958;2023-04-08T07:42:32;97546.84;;;8.13;81.64
9281;BME280;4679;47.966;7.958;2023-04-08T07:44:34;97549.69;;;8.11;82.32
9281;BME280;4679;47.966;7.958;2023-04-08T07:46:36;97545.97;;;8.19;81.97
9281;BME280;4679;47.966;7.958;2023-04-08T07:48:40;97549.13;;;8.28;81.54
9281;BME280;4679;47.966;7.958;2023-04-08T07:50:41;97544.06;;;8.33;81.37
9281;BME280;4679;47.966;7.958;2023-04-08T07:52:44;97541.78;;;8.36;81.34
9281;BME280;4679;47.966;7.958;2023-04-08T07:54:46;97545.75;;;8.45;81.18
9281;BME280;4679;47.966;7.958;2023-04-08T07:56:48;97543.47;;;8.49;81.08
9281;BME280;4679;47.966;7.958;2023-04-08T07:58:49;97544.78;;;8.58;80.95
9281;BME280;4679;47.966;7.958;2023-04-08T08:00:51;97541.22;;;8.53;81.28
9281;BME280;4679;47.966;7.958;2023-04-08T08:02:53;97541.06;;;8.48;81.05
9281;BME280;4679;47.966;7.958;2023-04-08T08:04:56;97546.72;;;8.51;80.59
9281;BME280;4679;47.966;7.958;2023-04-08T08:06:57;97546.34;;;8.66;80.57
9281;BME280;4679;47.966;7.958;2023-04-08T08:08:59;97531.94;;;8.80;80.60
9281;BME280;4679;47.966;7.958;2023-04-08T08:11:01;97540.38;;;8.89;80.16
9281;BME280;4679;47.966;7.958;2023-04-08T08:13:03;97536.69;;;8.90;80.00
9281;BME280;4679;47.966;7.958;2023-04-08T08:15:05;97543.34;;;8.80;80.01
9281;BME280;4679;47.966;7.958;2023-04-08T08:17:07;97541.28;;;8.82;79.94
9281;BME280;4679;47.966;7.958;2023-04-08T08:19:09;97546.47;;;8.89;79.82
9281;BME280;4679;47.966;7.958;2023-04-08T08:21:13;97542.81;;;8.90;79.63
9281;BME280;4679;47.966;7.958;2023-04-08T08:23:15;97546.47;;;8.89;79.71
9281;BME280;4679;47.966;7.958;2023-04-08T08:25:17;97558.84;;;8.95;79.62
9281;BME280;4679;47.966;7.958;2023-04-08T08:27:19;97550.47;;;8.98;79.53
9281;BME280;4679;47.966;7.958;2023-04-08T08:29:20;97557.50;;;9.04;79.65
9281;BME280;4679;47.966;7.958;2023-04-08T08:31:22;97551.53;;;9.09;79.60
9281;BME280;4679;47.966;7.958;2023-04-08T08:33:24;97550.28;;;9.11;79.26
9281;BME280;4679;47.966;7.958;2023-04-08T08:35:25;97561.03;;;9.16;79.16
9281;BME280;4679;47.966;7.958;2023-04-08T08:37:28;97560.13;;;9.23;78.97
9281;BME280;4679;47.966;7.958;2023-04-08T08:39:30;97561.66;;;9.30;78.84
9281;BME280;4679;47.966;7.958;2023-04-08T08:41:33;97563.38;;;9.36;78.78
9281;BME280;4679;47.966;7.958;2023-04-08T08:43:35;97564.19;;;9.37;78.23
9281;BME280;4679;47.966;7.958;2023-04-08T08:45:38;97563.75;;;9.40;78.42
9281;BME280;4679;47.966;7.958;2023-04-08T08:47:40;97570.66;;;9.41;78.10
9281;BME280;4679;47.966;7.958;2023-04-08T08:49:42;97569.63;;;9.42;78.12
9281;BME280;4679;47.966;7.958;2023-04-08T08:51:45;97568.84;;;9.41;78.14
9281;BME280;4679;47.966;7.958;2023-04-08T08:53:48;97560.78;;;9.48;77.76
9281;BME280;4679;47.966;7.958;2023-04-08T08:55:49;97572.91;;;9.56;77.80
9281;BME280;4679;47.966;7.958;2023-04-08T08:57:51;97569.13;;;9.63;78.01
9281;BME280;4679;47.966;7.958;2023-04-08T08:59:53;97574.31;;;9.58;77.47
9281;BME280;4679;47.966;7.958;2023-04-08T09:01:55;97572.72;;;9.69;77.12
9281;BME280;4679;47.966;7.958;2023-04-08T09:04:07;97575.06;;;9.77;76.97
9281;BME280;4679;47.966;7.958;2023-04-08T09:06:09;97579.06;;;9.79;77.18
9281;BME280;4679;47.966;7.958;2023-04-08T09:08:22;97579.53;;;9.76;77.42
9281;BME280;4679;47.966;7.958;2023-04-08T09:10:27;97579.28;;;9.66;77.10
9281;BME280;4679;47.966;7.958;2023-04-08T09:12:29;97581.44;;;9.58;77.32
9281;BME280;4679;47.966;7.958;2023-04-08T09:14:31;97581.53;;;9.51;77.76
9281;BME280;4679;47.966;7.958;2023-04-08T09:16:33;97579.25;;;9.55;77.48
9281;BME280;4679;47.966;7.958;2023-04-08T09:18:35;97581.69;;;9.68;77.36
9281;BME280;4679;47.966;7.958;2023-04-08T09:20:51;97581.50;;;9.81;76.82
9281;BME280;4679;47.966;7.958;2023-04-08T09:22:56;97581.84;;;9.84;76.55
9281;BME280;4679;47.966;7.958;2023-04-08T09:24:58;97580.59;;;9.87;76.91
9281;BME280;4679;47.966;7.958;2023-04-08T09:27:01;97577.03;;;9.93;76.61
9281;BME280;4679;47.966;7.958;2023-04-08T09:29:06;97584.19;;;9.93;76.26
9281;BME280;4679;47.966;7.958;2023-04-08T09:31:18;97581.06;;;9.96;76.03
9281;BME280;4679;47.966;7.958;2023-04-08T09:33:29;97576.47;;;10.03;76.15
9281;BME280;4679;47.966;7.958;2023-04-08T09:35:30;97585.34;;;9.97;75.83
9281;BME280;4679;47.966;7.958;2023-04-08T09:37:32;97583.94;;;9.94;76.60
9281;BME280;4679;47.966;7.958;2023-04-08T09:39:34;97578.56;;;10.01;76.04
9281;BME280;4679;47.966;7.958;2023-04-08T09:41:36;97585.22;;;9.92;75.94
9281;BME280;4679;47.966;7.958;2023-04-08T09:43:42;97581.66;;;9.98;76.40
9281;BME280;4679;47.966;7.958;2023-04-08T09:45:48;97589.63;;;10.09;75.85
9281;BME280;4679;47.966;7.958;2023-04-08T09:47:55;97584.97;;;10.23;75.93
9281;BME280;4679;47.966;7.958;2023-04-08T09:50:01;97587.63;;;10.23;75.68
9281;BME280;4679;47.966;7.958;2023-04-08T09:52:06;97587.91;;;10.15;75.02
9281;BME280;4679;47.966;7.958;2023-04-08T09:54:12;97592.16;;;10.16;75.04
9281;BME280;4679;47.966;7.958;2023-04-08T09:56:16;97592.34;;;10.21;74.77
9281;BME280;4679;47.966;7.958;2023-04-08T09:58:21;97593.03;;;10.28;75.57
9281;BME280;4679;47.966;7.958;2023-04-08T10:00:32;97593.72;;;10.35;74.45
9281;BME280;4679;47.966;7.958;2023-04-08T10:02:40;97585.75;;;10.47;74.98
9281;BME280;4679;47.966;7.958;2023-04-08T10:04:47;97592.56;;;10.54;75.02
9281;BME280;4679;47.966;7.958;2023-04-08T10:06:56;97589.56;;;10.63;74.88
9281;BME280;4679;47.966;7.958;2023-04-08T10:08:59;97581.38;;;10.64;74.75
9281;BME280;4679;47.966;7.958;2023-04-08T10:11:03;97590.72;;;10.67;73.58
9281;BME280;4679;47.966;7.958;2023-04-08T10:13:06;97587.59;;;10.58;73.87
9281;BME280;4679;47.966;7.958;2023-04-08T10:15:24;97596.97;;;10.49;74.00
9281;BME280;4679;47.966;7.958;2023-04-08T10:17:27;97596.84;;;10.44;74.22
9281;BME280;4679;47.966;7.958;2023-04-08T10:19:36;97591.44;;;10.39;74.93
9281;BME280;4679;47.966;7.958;2023-04-08T10:21:40;97593.72;;;10.35;74.59
9281;BME280;4679;47.966;7.958;2023-04-08T10:23:54;97594.53;;;10.36;74.47
9281;BME280;4679;47.966;7.958;2023-04-08T10:25:58;97590.38;;;10.28;73.86
9281;BME280;4679;47.966;7.958;2023-04-08T10:28:00;97601.22;;;10.38;74.73
9281;BME280;4679;47.966;7.958;2023-04-08T10:30:39;97595.22;;;10.43;73.65
9281;BME280;4679;47.966;7.958;2023-04-08T10:32:42;97598.81;;;10.37;73.74
9281;BME280;4679;47.966;7.958;2023-04-08T10:34:50;97597.28;;;10.29;74.02
9281;BME280;4679;47.966;7.958;2023-04-08T10:36:54;97595.56;;;10.35;73.93
9281;BME280;4679;47.966;7.958;2023-04-08T10:38:58;97588.78;;;10.39;74.08
9281;BME280;4679;47.966;7.958;2023-04-08T10:41:00;97586.56;;;10.36;74.17
9281;BME280;4679;47.966;7.958;2023-04-08T10:43:01;97584.72;;;10.36;74.21
9281;BME280;4679;47.966;7.958;2023-04-08T10:45:05;97584.38;;;10.33;74.22
9281;BME280;4679;47.966;7.958;2023-04-08T10:47:07;97584.59;;;10.31;73.50
9281;BME280;4679;47.966;7.958;2023-04-08T10:49:10;97584.59;;;10.31;73.93
9281;BME280;4679;47.966;7.958;2023-04-08T10:51:13;97587.50;;;10.30;74.18
9281;BME280;4679;47.966;7.958;2023-04-08T10:53:15;97589.47;;;10.34;74.06
9281;BME280;4679;47.966;7.958;2023-04-08T10:55:21;97584.97;;;10.35;73.64
9281;BME280;4679;47.966;7.958;2023-04-08T10:57:23;97585.53;;;10.37;73.52
9281;BME280;4679;47.966;7.958;2023-04-08T10:59:27;97588.06;;;10.32;74.13
9281;BME280;4679;47.966;7.958;2023-04-08T11:01:37;97584.03;;;10.29;73.60
9281;BME280;4679;47.966;7.958;2023-04-08T11:03:41;97590.94;;;10.30;73.70
9281;BME280;4679;47.966;7.958;2023-04-08T11:05:44;97584.25;;;10.28;72.95
9281;BME280;4679;47.966;7.958;2023-04-08T11:07:46;97598.31;;;10.28;73.16
9281;BME280;4679;47.966;7.958;2023-04-08T11:09:48;97592.09;;;10.34;73.37
9281;BME280;4679;47.966;7.958;2023-04-08T11:11:51;97587.72;;;10.40;73.73
9281;BME280;4679;47.966;7.958;2023-04-08T11:13:53;97582.44;;;10.51;72.27
9281;BME280;4679;47.966;7.958;2023-04-08T11:15:58;97582.31;;;10.46;72.83
9281;BME280;4679;47.966;7.958;2023-04-08T11:18:01;97580.09;;;10.43;72.43
9281;BME280;4679;47.966;7.958;2023-04-08T11:20:04;97583.13;;;10.47;72.41
9281;BME280;4679;47.966;7.958;2023-04-08T11:22:07;97572.38;;;10.42;72.67
9281;BME280;4679;47.966;7.958;2023-04-08T11:24:11;97582.09;;;10.36;72.92
9281;BME280;4679;47.966;7.958;2023-04-08T11:26:12;97575.25;;;10.40;72.95
9281;BME280;4679;47.966;7.958;2023-04-08T11:28:15;97582.88;;;10.48;73.12
9281;BME280;4679;47.966;7.958;2023-04-08T11:30:17;97586.22;;;10.55;73.03
9281;BME280;4679;47.966;7.958;2023-04-08T11:32:19;97576.97;;;10.58;72.95
9281;BME280;4679;47.966;7.958;2023-04-08T11:34:21;97577.91;;;10.64;72.52
9281;BME280;4679;47.966;7.958;2023-04-08T11:36:24;97581.03;;;10.61;72.91
9281;BME280;4679;47.966;7.958;2023-04-08T11:38:27;97576.66;;;10.66;71.51
9281;BME280;4679;47.966;7.958;2023-04-08T11:40:29;97575.34;;;10.80;72.03
9281;BME280;4679;47.966;7.958;2023-04-08T11:42:31;97577.63;;;10.88;72.12
9281;BME280;4679;47.966;7.958;2023-04-08T11:44:33;97572.88;;;11.02;72.07
9281;BME280;4679;47.966;7.958;2023-04-08T11:46:35;97573.09;;;11.12;71.21
9281;BME280;4679;47.966;7.958;2023-04-08T11:48:37;97567.28;;;11.15;71.42
9281;BME280;4679;47.966;7.958;2023-04-08T11:50:40;97564.63;;;11.15;71.00
9281;BME280;4679;47.966;7.958;2023-04-08T11:52:43;97564.16;;;11.30;71.23
9281;BME280;4679;47.966;7.958;2023-04-08T11:54:47;97567.41;;;11.49;70.00
9281;BME280;4679;47.966;7.958;2023-04-08T11:56:49;97555.53;;;11.68;70.50
9281;BME280;4679;47.966;7.958;2023-04-08T11:58:52;97570.06;;;11.49;69.99
9281;BME280;4679;47.966;7.958;2023-04-08T12:00:54;97561.09;;;11.38;70.19
9281;BME280;4679;47.966;7.958;2023-04-08T12:02:56;97564.16;;;11.30;70.59
9281;BME280;4679;47.966;7.958;2023-04-08T12:04:57;97565.09;;;11.24;70.90
9281;BME280;4679;47.966;7.958;2023-04-08T12:06:59;97568.44;;;11.19;70.97
9281;BME280;4679;47.966;7.958;2023-04-08T12:09:01;97566.53;;;11.03;70.43
9281;BME280;4679;47.966;7.958;2023-04-08T12:11:04;97562.59;;;11.06;70.68
9281;BME280;4679;47.966;7.958;2023-04-08T12:13:06;97568.72;;;11.06;71.58
9281;BME280;4679;47.966;7.958;2023-04-08T12:15:09;97569.75;;;11.05;71.00
9281;BME280;4679;47.966;7.958;2023-04-08T12:17:10;97567.66;;;11.07;71.60
9281;BME280;4679;47.966;7.958;2023-04-08T12:19:12;97567.72;;;10.96;70.92
9281;BME280;4679;47.966;7.958;2023-04-08T12:21:14;97566.56;;;10.91;70.19
9281;BME280;4679;47.966;7.958;2023-04-08T12:23:15;97571.41;;;10.95;71.75
9281;BME280;4679;47.966;7.958;2023-04-08T12:25:17;97568.75;;;10.95;70.50
9281;BME280;4679;47.966;7.958;2023-04-08T12:27:20;97571.97;;;10.97;71.02
9281;BME280;4679;47.966;7.958;2023-04-08T12:29:22;97570.38;;;10.96;70.48
9281;BME280;4679;47.966;7.958;2023-04-08T12:31:24;97570.94;;;10.98;70.54
9281;BME280;4679;47.966;7.958;2023-04-08T12:33:27;97559.81;;;11.01;70.59
9281;BME280;4679;47.966;7.958;2023-04-08T12:35:28;97568.94;;;11.05;69.60
9281;BME280;4679;47.966;7.958;2023-04-08T12:37:30;97553.34;;;11.08;70.33
9281;BME280;4679;47.966;7.958;2023-04-08T12:39:32;97556.34;;;11.12;70.46
9281;BME280;4679;47.966;7.958;2023-04-08T12:41:34;97563.50;;;11.11;70.54
9281;BME280;4679;47.966;7.958;2023-04-08T12:43:37;97560.38;;;11.14;69.77
9281;BME280;4679;47.966;7.958;2023-04-08T12:45:39;97554.13;;;11.20;69.11
9281;BME280;4679;47.966;7.958;2023-04-08T12:47:41;97552.13;;;11.27;68.99
9281;BME280;4679;47.966;7.958;2023-04-08T12:49:42;97551.41;;;11.32;69.40
9281;BME280;4679;47.966;7.958;2023-04-08T12:51:44;97550.81;;;11.42;70.06
9281;BME280;4679;47.966;7.958;2023-04-08T12:53:46;97555.25;;;11.53;69.71
9281;BME280;4679;47.966;7.958;2023-04-08T12:55:48;97545.03;;;12.07;67.95
9281;BME280;4679;47.966;7.958;2023-04-08T12:57:50;97550.56;;;12.77;66.33
9281;BME280;4679;47.966;7.958;2023-04-08T12:59:53;97548.91;;;12.93;66.21
9281;BME280;4679;47.966;7.958;2023-04-08T13:01:55;97542.25;;;12.74;66.13
9281;BME280;4679;47.966;7.958;2023-04-08T13:03:57;97549.25;;;12.41;66.60
9281;BME280;4679;47.966;7.958;2023-04-08T13:05:58;97555.00;;;12.33;66.81
9281;BME280;4679;47.966;7.958;2023-04-08T13:08:00;97554.78;;;12.18;66.86
9281;BME280;4679;47.966;7.958;2023-04-08T13:10:02;97551.78;;;12.14;67.82
9281;BME280;4679;47.966;7.958;2023-04-08T13:12:06;97554.31;;;12.04;67.59
9281;BME280;4679;47.966;7.958;2023-04-08T13:14:08;97543.81;;;11.97;67.67
9281;BME280;4679;47.966;7.958;2023-04-08T13:16:11;97552.84;;;11.96;67.10
9281;BME280;4679;47.966;7.958;2023-04-08T13:18:13;97557.44;;;11.84;67.15
9281;BME280;4679;47.966;7.958;2023-04-08T13:20:15;97554.59;;;11.74;67.78
9281;BME280;4679;47.966;7.958;2023-04-08T13:22:17;97553.78;;;11.74;68.17
9281;BME280;4679;47.966;7.958;2023-04-08T13:24:18;97555.13;;;11.59;68.13
9281;BME280;4679;47.966;7.958;2023-04-08T13:26:20;97551.56;;;11.54;67.26
9281;BME280;4679;47.966;7.958;2023-04-08T13:28:22;97548.31;;;11.52;67.58
9281;BME280;4679;47.966;7.958;2023-04-08T13:30:24;97549.94;;;11.53;67.58
9281;BME280;4679;47.966;7.958;2023-04-08T13:32:27;97550.28;;;11.56;67.88
9281;BME280;4679;47.966;7.958;2023-04-08T13:34:29;97552.19;;;11.61;66.83
9281;BME280;4679;47.966;7.958;2023-04-08T13:36:30;97546.56;;;11.57;67.43
9281;BME280;4679;47.966;7.958;2023-04-08T13:38:32;97543.72;;;11.47;66.70
9281;BME280;4679;47.966;7.958;2023-04-08T13:40:34;97547.09;;;11.43;66.50
9281;BME280;4679;47.966;7.958;2023-04-08T13:42:35;97539.72;;;11.45;67.75
9281;BME280;4679;47.966;7.958;2023-04-08T13:44:37;97546.72;;;11.51;66.36
9281;BME280;4679;47.966;7.958;2023-04-08T13:46:39;97550.41;;;11.50;66.66
9281;BME280;4679;47.966;7.958;2023-04-08T13:48:43;97552.59;;;11.53;66.93
9281;BME280;4679;47.966;7.958;2023-04-08T13:50:45;97550.03;;;11.58;66.20
9281;BME280;4679;47.966;7.958;2023-04-08T13:52:47;97550.34;;;11.61;67.01
9281;BME280;4679;47.966;7.958;2023-04-08T13:54:48;97549.00;;;11.59;66.20
9281;BME280;4679;47.966;7.958;2023-04-08T13:56:50;97548.31;;;11.52;66.20
9281;BME280;4679;47.966;7.958;2023-04-08T13:58:52;97550.19;;;11.51;66.20
9281;BME280;4679;47.966;7.958;2023-04-08T14:00:53;97551.22;;;11.50;66.70
9281;BME280;4679;47.966;7.958;2023-04-08T14:02:55;97548.22;;;11.47;66.67
9281;BME280;4679;47.966;7.958;2023-04-08T14:04:58;97547.50;;;11.51;65.48
9281;BME280;4679;47.966;7.958;2023-04-08T14:07:00;97551.78;;;11.52;65.10
9281;BME280;4679;47.966;7.958;2023-04-08T14:09:02;97553.53;;;11.47;65.27
9281;BME280;4679;47.966;7.958;2023-04-08T14:11:03;97547.09;;;11.43;66.24
9281;BME280;4679;47.966;7.958;2023-04-08T14:13:05;97545.84;;;11.45;66.13
9281;BME280;4679;47.966;7.958;2023-04-08T14:15:08;97548.84;;;11.37;65.42
9281;BME280;4679;47.966;7.958;2023-04-08T14:17:10;97548.69;;;11.27;66.42
9281;BME280;4679;47.966;7.958;2023-04-08T14:19:12;97548.69;;;11.27;66.29
9281;BME280;4679;47.966;7.958;2023-04-08T14:21:15;97551.09;;;11.28;65.55
9281;BME280;4679;47.966;7.958;2023-04-08T14:23:17;97554.47;;;11.24;66.10
9281;BME280;4679;47.966;7.958;2023-04-08T14:25:19;97548.69;;;11.15;66.40
9281;BME280;4679;47.966;7.958;2023-04-08T14:27:20;97552.66;;;11.13;65.66
9281;BME280;4679;47.966;7.958;2023-04-08T14:29:22;97547.66;;;11.16;65.33
9281;BME280;4679;47.966;7.958;2023-04-08T14:31:24;97551.34;;;11.15;65.34
9281;BME280;4679;47.966;7.958;2023-04-08T14:33:25;97556.00;;;11.08;65.99
9281;BME280;4679;47.966;7.958;2023-04-08T14:35:28;97547.03;;;10.98;66.17
9281;BME280;4679;47.966;7.958;2023-04-08T14:37:31;97554.09;;;10.92;65.13
9281;BME280;4679;47.966;7.958;2023-04-08T14:39:33;97562.06;;;10.92;65.39
9281;BME280;4679;47.966;7.958;2023-04-08T14:41:35;97562.06;;;10.92;64.73
9281;BME280;4679;47.966;7.958;2023-04-08T14:43:37;97553.97;;;10.87;65.72
9281;BME280;4679;47.966;7.958;2023-04-08T14:45:38;97559.78;;;10.84;64.74
9281;BME280;4679;47.966;7.958;2023-04-08T14:47:40;97561.84;;;10.82;65.96
9281;BME280;4679;47.966;7.958;2023-04-08T14:49:42;97554.69;;;10.82;64.41
9281;BME280;4679;47.966;7.958;2023-04-08T14:51:43;97558.63;;;10.80;64.20
9281;BME280;4679;47.966;7.958;2023-04-08T14:53:46;97567.03;;;10.77;65.24
9281;BME280;4679;47.966;7.958;2023-04-08T14:55:48;97565.19;;;10.77;65.22
9281;BME280;4679;47.966;7.958;2023-04-08T14:57:50;97564.97;;;10.79;64.79
9281;BME280;4679;47.966;7.958;2023-04-08T14:59:52;97562.19;;;10.74;64.40
9281;BME280;4679;47.966;7.958;2023-04-08T15:01:53;97560.81;;;10.71;64.92
9281;BME280;4679;47.966;7.958;2023-04-08T15:03:55;97557.13;;;10.72;64.26
9281;BME280;4679;47.966;7.958;2023-04-08T15:05:57;97558.75;;;10.73;65.20
9281;BME280;4679;47.966;7.958;2023-04-08T15:07:59;97557.47;;;10.76;64.86
9281;BME280;4679;47.966;7.958;2023-04-08T15:10:02;97555.97;;;10.80;64.05
9281;BME280;4679;47.966;7.958;2023-04-08T15:12:04;97567.16;;;10.82;64.29
9281;BME280;4679;47.966;7.958;2023-04-08T15:14:06;97567.47;;;10.85;64.50
9281;BME280;4679;47.966;7.958;2023-04-08T15:16:07;97571.53;;;10.88;64.43
9281;BME280;4679;47.966;7.958;2023-04-08T15:18:09;97569.44;;;10.90;63.50
9281;BME280;4679;47.966;7.958;2023-04-08T15:20:11;97569.44;;;10.90;64.41
9281;BME280;4679;47.966;7.958;2023-04-08T15:22:13;97575.31;;;10.92;63.28
9281;BME280;4679;47.966;7.958;2023-04-08T15:24:15;97576.72;;;10.95;64.23
9281;BME280;4679;47.966;7.958;2023-04-08T15:26:19;97570.94;;;10.98;63.53
9281;BME280;4679;47.966;7.958;2023-04-08T15:28:22;97565.88;;;10.96;63.80
9281;BME280;4679;47.966;7.958;2023-04-08T15:30:23;97570.13;;;10.97;63.04
9281;BME280;4679;47.966;7.958;2023-04-08T15:32:25;97568.53;;;10.96;63.92
9281;BME280;4679;47.966;7.958;2023-04-08T15:34:27;97567.47;;;10.97;64.08
9281;BME280;4679;47.966;7.958;2023-04-08T15:36:29;97571.16;;;10.96;63.73
9281;BME280;4679;47.966;7.958;2023-04-08T15:38:31;97568.84;;;11.00;62.90
9281;BME280;4679;47.966;7.958;2023-04-08T15:40:33;97572.56;;;10.99;63.09
9281;BME280;4679;47.966;7.958;2023-04-08T15:42:36;97566.66;;;10.97;64.04
9281;BME280;4679;47.966;7.958;2023-04-08T15:44:38;97571.97;;;10.97;64.34
9281;BME280;4679;47.966;7.958;2023-04-08T15:46:40;97569.91;;;10.99;63.93
9281;BME280;4679;47.966;7.958;2023-04-08T15:48:41;97566.44;;;10.98;63.32
9281;BME280;4679;47.966;7.958;2023-04-08T15:50:43;97569.91;;;10.99;64.12
9281;BME280;4679;47.966;7.958;2023-04-08T15:52:45;97571.16;;;10.96;63.81
9281;BME280;4679;47.966;7.958;2023-04-08T15:54:46;97576.56;;;11.01;63.16
9281;BME280;4679;47.966;7.958;2023-04-08T15:56:48;97570.56;;;11.06;62.77
9281;BME280;4679;47.966;7.958;2023-04-08T15:58:51;97575.41;;;11.09;63.46
9281;BME280;4679;47.966;7.958;2023-04-08T16:00:53;97573.78;;;11.08;62.89
9281;BME280;4679;47.966;7.958;2023-04-08T16:02:56;97572.19;;;11.07;63.61
9281;BME280;4679;47.966;7.958;2023-04-08T16:04:58;97571.47;;;11.11;64.01
9281;BME280;4679;47.966;7.958;2023-04-08T16:07:00;97572.88;;;11.14;63.56
9281;BME280;4679;47.966;7.958;2023-04-08T16:09:01;97573.66;;;11.14;62.87
9281;BME280;4679;47.966;7.958;2023-04-08T16:11:04;97581.38;;;11.16;62.36
9281;BME280;4679;47.966;7.958;2023-04-08T16:13:07;97573.41;;;11.16;62.15
9281;BME280;4679;47.966;7.958;2023-04-08T16:15:10;97577.91;;;11.15;62.75
9281;BME280;4679;47.966;7.958;2023-04-08T16:17:12;97575.97;;;11.11;63.12
9281;BME280;4679;47.966;7.958;2023-04-08T16:19:13;97583.59;;;11.07;62.92
9281;BME280;4679;47.966;7.958;2023-04-08T16:21:15;97576.69;;;11.06;63.07
9281;BME280;4679;47.966;7.958;2023-04-08T16:23:17;97580.38;;;11.05;62.89
9281;BME280;4679;47.966;7.958;2023-04-08T16:25:19;97575.28;;;11.04;62.69
9281;BME280;4679;47.966;7.958;2023-04-08T16:27:21;97582.44;;;11.03;62.74
9281;BME280;4679;47.966;7.958;2023-04-08T16:29:22;97578.19;;;11.02;63.26
9281;BME280;4679;47.966;7.958;2023-04-08T16:31:26;97578.19;;;11.02;62.62
9281;BME280;4679;47.966;7.958;2023-04-08T16:33:27;97580.25;;;11.00;62.57